עמוד ראשי
METAR-TAF:

METAR-TAF

שדות תעופה :

Kingman, אריזונה, ארצות הברית

קו רוחב: 35-15-28N, קו אורך: 113-55-59W, גובה: 1050מטר

תצפית מזג אוויר נוכחית

הדו"ח נערך לפני 1 שעות ו 22דקות, בשעה 11:51 UTC
רוח 6קשר מכיוון דרום
טמפרטורת 28 צלסיוס
לחות 45%
לחץ 1021 hPa
ראות: 16.1קילומטר
שמיים נקיים

METAR: KIGM 251151Z AUTO 17006KT 10SM CLR 28/15 A3015 RMK AO2 SLP126 T02780150 10333 20278 53004

זמן: 06:13 (13:13 UTC)


TAF: חסר

תצפיות ותחזיות מזג אוויר לגבי יותר מ- 4,000 שדות תעופה ברחבי העולם. דוחות METAR ו- TAF.

התחנות הזמינות מסומנות בנקודות צהובות ואדומות על גבי המפה.

העבר את העכבר לנקודה הצבעונית על מנת לראות את שם התחנה.

לאחר מכן, לחץ כדי לראות את תוכן ואת תחזיות מזג האוויר.

כדי לשנות את המפה: לחץ על הכפתורים הירוקים עם הפלוס השחור כדי להתקרב; על הכפתור הירוק עם המקף כדי להתרחק; או בחיצים הירוקים למפות סמוכות.


METAR-TAF: